createdAt,value
2023-02-19T00:02:32.326Z,7.70
2023-02-19T00:05:18.879Z,7.70
2023-02-19T00:08:05.403Z,7.70
2023-02-19T00:10:52.064Z,7.70
2023-02-19T00:13:38.580Z,7.70
2023-02-19T00:16:25.075Z,7.70
2023-02-19T00:19:11.601Z,7.60
2023-02-19T00:21:58.094Z,7.60
2023-02-19T00:24:44.623Z,7.60
2023-02-19T00:27:31.190Z,7.60
2023-02-19T00:30:17.715Z,7.50
2023-02-19T00:33:04.283Z,7.50
2023-02-19T00:35:50.879Z,7.50
2023-02-19T00:38:37.447Z,7.50
2023-02-19T00:41:23.977Z,7.50
2023-02-19T00:44:10.543Z,7.40
2023-02-19T00:46:57.122Z,7.50
2023-02-19T00:49:43.637Z,7.50
2023-02-19T00:52:30.188Z,7.50
2023-02-19T00:55:16.715Z,7.50
2023-02-19T00:58:03.209Z,7.50
2023-02-19T01:00:50.741Z,7.50
2023-02-19T01:03:38.264Z,7.50
2023-02-19T01:06:24.795Z,7.50
2023-02-19T01:09:11.317Z,7.50
2023-02-19T01:11:57.977Z,7.50
2023-02-19T01:14:44.539Z,7.50
2023-02-19T01:17:31.026Z,7.50
2023-02-19T01:20:17.534Z,7.50
2023-02-19T01:23:04.055Z,7.50
2023-02-19T01:25:50.616Z,7.50
2023-02-19T01:28:37.139Z,7.50
2023-02-19T01:31:23.771Z,7.50
2023-02-19T01:34:10.395Z,7.50
2023-02-19T01:36:56.967Z,7.50
2023-02-19T01:39:43.485Z,7.50
2023-02-19T01:42:30.018Z,7.50
2023-02-19T01:45:16.569Z,7.50
2023-02-19T01:48:03.099Z,7.50
2023-02-19T01:50:49.654Z,7.60
2023-02-19T01:53:36.136Z,7.60
2023-02-19T01:56:23.704Z,7.60
2023-02-19T01:59:10.221Z,7.60
2023-02-19T02:01:56.765Z,7.60
2023-02-19T02:04:43.324Z,7.60
2023-02-19T02:07:29.845Z,7.60
2023-02-19T02:10:16.376Z,7.50
2023-02-19T02:13:02.882Z,7.50
2023-02-19T02:15:49.409Z,7.50
2023-02-19T02:18:35.917Z,7.60
2023-02-19T02:21:22.404Z,7.60
2023-02-19T02:24:08.926Z,7.60
2023-02-19T02:26:55.424Z,7.60
2023-02-19T02:29:41.974Z,7.60
2023-02-19T02:32:28.455Z,7.60
2023-02-19T02:35:15.023Z,7.60
2023-02-19T02:38:01.575Z,7.60
2023-02-19T02:40:49.127Z,7.60
2023-02-19T02:43:35.618Z,7.60
2023-02-19T02:46:22.145Z,7.60
2023-02-19T02:49:08.634Z,7.60
2023-02-19T02:51:55.179Z,7.60
2023-02-19T02:54:41.711Z,7.60
2023-02-19T02:57:28.243Z,7.60
2023-02-19T03:00:14.765Z,7.60
2023-02-19T03:03:01.301Z,7.60
2023-02-19T03:05:47.816Z,7.60
2023-02-19T03:08:34.375Z,7.70
2023-02-19T03:11:20.896Z,7.60
2023-02-19T03:14:07.460Z,7.60
2023-02-19T03:16:54.034Z,7.60
2023-02-19T03:19:40.589Z,7.60
2023-02-19T03:22:27.114Z,7.50
2023-02-19T03:25:14.621Z,7.60
2023-02-19T03:28:01.137Z,7.60
2023-02-19T03:30:47.687Z,7.60
2023-02-19T03:33:34.264Z,7.60
2023-02-19T03:36:20.809Z,7.70
2023-02-19T03:39:07.355Z,7.70
2023-02-19T03:41:53.926Z,7.70
2023-02-19T03:44:40.450Z,7.60
2023-02-19T03:47:27.008Z,7.60
2023-02-19T03:50:13.519Z,7.60
2023-02-19T03:53:00.080Z,7.60
2023-02-19T03:55:46.632Z,7.60
2023-02-19T03:58:33.153Z,7.70
2023-02-19T04:01:19.714Z,7.60
2023-02-19T04:04:06.247Z,7.60
2023-02-19T04:06:52.802Z,7.60
2023-02-19T04:09:39.286Z,7.70
2023-02-19T04:12:25.781Z,7.60
2023-02-19T04:15:12.307Z,7.50
2023-02-19T04:17:58.818Z,7.60
2023-02-19T04:20:45.342Z,7.60
2023-02-19T04:23:32.905Z,7.50
2023-02-19T04:26:19.431Z,7.50
2023-02-19T04:29:06.106Z,7.50
2023-02-19T04:31:52.646Z,7.50
2023-02-19T04:34:39.202Z,7.50
2023-02-19T04:37:25.750Z,7.50
2023-02-19T04:40:12.426Z,7.40
2023-02-19T04:42:58.964Z,7.50
2023-02-19T04:45:45.490Z,7.40
2023-02-19T04:48:32.087Z,7.40
2023-02-19T04:51:19.615Z,7.40
2023-02-19T04:54:06.174Z,7.40
2023-02-19T04:56:52.699Z,7.40
2023-02-19T04:59:39.234Z,7.40
2023-02-19T05:02:25.755Z,7.40
2023-02-19T05:05:12.306Z,7.40
2023-02-19T05:07:58.808Z,7.30
2023-02-19T05:10:45.300Z,7.30
2023-02-19T05:13:31.868Z,7.30
2023-02-19T05:16:18.483Z,7.30
2023-02-19T05:19:04.967Z,7.30
2023-02-19T05:21:51.519Z,7.30
2023-02-19T05:24:38.050Z,7.30
2023-02-19T05:27:24.700Z,7.30
2023-02-19T05:30:11.206Z,7.30
2023-02-19T05:32:57.764Z,7.30
2023-02-19T05:35:44.301Z,7.30
2023-02-19T05:38:30.867Z,7.30
2023-02-19T05:41:17.424Z,7.40
2023-02-19T05:44:03.947Z,7.40
2023-02-19T05:46:50.474Z,7.40
2023-02-19T05:49:37.005Z,7.30
2023-02-19T05:52:23.530Z,7.30
2023-02-19T05:55:10.071Z,7.30
2023-02-19T05:57:56.591Z,7.30
2023-02-19T06:00:43.133Z,7.30
2023-02-19T06:03:29.668Z,7.30
2023-02-19T06:06:16.246Z,7.30
2023-02-19T06:09:02.779Z,7.30
2023-02-19T06:11:49.322Z,7.30
2023-02-19T06:14:35.802Z,7.30
2023-02-19T06:17:22.303Z,7.30
2023-02-19T06:20:08.786Z,7.30
2023-02-19T06:22:55.318Z,7.30
2023-02-19T06:25:41.838Z,7.30
2023-02-19T06:28:28.396Z,7.30
2023-02-19T06:31:15.162Z,7.30
2023-02-19T06:34:01.801Z,7.30
2023-02-19T06:36:48.327Z,7.30
2023-02-19T06:39:34.976Z,7.30
2023-02-19T06:42:21.524Z,7.30
2023-02-19T06:45:08.060Z,7.30
2023-02-19T06:47:54.538Z,7.30
2023-02-19T06:50:41.096Z,7.30
2023-02-19T06:53:27.638Z,7.30
2023-02-19T06:56:14.191Z,7.30
2023-02-19T06:59:00.741Z,7.30
2023-02-19T07:01:48.420Z,7.30
2023-02-19T07:04:34.951Z,7.30
2023-02-19T07:07:22.525Z,7.30
2023-02-19T07:10:09.005Z,7.30
2023-02-19T07:12:55.508Z,7.30
2023-02-19T07:15:42.006Z,7.30
2023-02-19T07:18:28.540Z,7.30
2023-02-19T07:21:15.091Z,7.30
2023-02-19T07:24:01.640Z,7.30
2023-02-19T07:26:48.150Z,7.30
2023-02-19T07:29:34.670Z,7.30
2023-02-19T07:32:21.188Z,7.30
2023-02-19T07:35:07.719Z,7.30
2023-02-19T07:37:54.241Z,7.30
2023-02-19T07:40:40.926Z,7.30
2023-02-19T07:43:27.439Z,7.30
2023-02-19T07:46:13.973Z,7.40
2023-02-19T07:49:01.539Z,7.30
2023-02-19T07:51:48.228Z,7.40
2023-02-19T07:54:34.758Z,7.40
2023-02-19T07:57:22.381Z,7.40
2023-02-19T08:00:08.904Z,7.40
2023-02-19T08:02:55.410Z,7.40
2023-02-19T08:05:41.893Z,7.30
2023-02-19T08:08:28.442Z,7.30
2023-02-19T08:11:14.967Z,7.50
2023-02-19T08:14:01.789Z,7.30
2023-02-19T08:16:48.505Z,7.40
2023-02-19T08:19:36.107Z,7.40
2023-02-19T08:22:22.609Z,7.40
2023-02-19T08:25:09.217Z,7.30
2023-02-19T08:27:56.825Z,7.30
2023-02-19T08:30:43.436Z,7.20
2023-02-19T08:33:30.050Z,7.10
2023-02-19T08:36:16.635Z,7.00
2023-02-19T08:39:03.196Z,6.90
2023-02-19T08:41:49.752Z,6.90
2023-02-19T08:44:36.353Z,6.80
2023-02-19T08:47:22.850Z,6.80
2023-02-19T08:50:09.514Z,6.80
2023-02-19T08:52:56.219Z,7.00
2023-02-19T08:55:42.798Z,7.10
2023-02-19T08:58:29.387Z,7.10
2023-02-19T09:01:16.203Z,7.20
2023-02-19T09:04:02.863Z,7.30
2023-02-19T09:06:49.554Z,7.40
2023-02-19T09:09:36.085Z,7.40
2023-02-19T09:12:22.904Z,7.50
2023-02-19T09:15:10.509Z,7.50
2023-02-19T09:17:57.200Z,7.50
2023-02-19T09:20:43.776Z,7.50
2023-02-19T09:23:31.383Z,7.60
2023-02-19T09:26:17.900Z,7.60
2023-02-19T09:29:05.473Z,7.60
2023-02-19T09:31:52.098Z,7.70
2023-02-19T09:34:38.725Z,7.70
2023-02-19T09:37:25.283Z,7.70
2023-02-19T09:40:11.840Z,7.70
2023-02-19T09:42:59.765Z,7.70
2023-02-19T09:45:47.423Z,7.80
2023-02-19T09:48:33.992Z,7.90
2023-02-19T09:51:20.614Z,7.90
2023-02-19T09:54:07.185Z,8.00
2023-02-19T09:56:53.921Z,8.00
2023-02-19T09:59:40.577Z,8.10
2023-02-19T10:02:27.700Z,8.20
2023-02-19T10:05:14.250Z,8.20
2023-02-19T10:08:00.887Z,8.20
2023-02-19T10:10:47.523Z,8.20
2023-02-19T10:13:34.089Z,8.40
2023-02-19T10:16:20.872Z,8.50
2023-02-19T10:19:07.430Z,8.50
2023-02-19T10:21:53.969Z,8.50
2023-02-19T10:24:40.536Z,8.50
2023-02-19T10:27:27.071Z,8.60
2023-02-19T10:30:13.659Z,8.60
2023-02-19T10:33:00.236Z,8.60
2023-02-19T10:35:46.740Z,8.70
2023-02-19T10:38:33.388Z,8.60
2023-02-19T10:41:19.942Z,8.60
2023-02-19T10:44:06.468Z,8.60
2023-02-19T10:46:53.122Z,8.70
2023-02-19T10:49:39.669Z,8.60
2023-02-19T10:52:26.246Z,8.60
2023-02-19T10:55:12.892Z,8.60
2023-02-19T10:57:59.712Z,8.70
2023-02-19T11:00:46.327Z,8.70
2023-02-19T11:03:32.865Z,8.70
2023-02-19T11:06:19.452Z,8.70
2023-02-19T11:09:06.001Z,8.70
2023-02-19T11:11:52.553Z,8.70
2023-02-19T11:14:39.080Z,8.60
2023-02-19T11:17:25.693Z,8.60
2023-02-19T11:20:12.194Z,8.80
2023-02-19T11:22:58.759Z,8.80
2023-02-19T11:25:45.287Z,8.80
2023-02-19T11:28:31.827Z,8.70
2023-02-19T11:31:18.378Z,8.70
2023-02-19T11:34:04.980Z,8.70
2023-02-19T11:36:51.754Z,8.80
2023-02-19T11:39:38.297Z,8.90
2023-02-19T11:42:24.939Z,8.90
2023-02-19T11:45:11.534Z,8.90
2023-02-19T11:47:58.203Z,8.80
2023-02-19T11:50:44.723Z,8.80
2023-02-19T11:53:31.212Z,8.70
2023-02-19T11:56:17.730Z,8.70
2023-02-19T11:59:04.296Z,8.60
2023-02-19T12:01:50.839Z,8.60
2023-02-19T12:04:37.902Z,8.60
2023-02-19T12:07:24.489Z,8.70
2023-02-19T12:10:11.280Z,8.80
2023-02-19T12:12:57.849Z,8.80
2023-02-19T12:15:44.391Z,8.80
2023-02-19T12:18:31.265Z,8.90
2023-02-19T12:21:18.469Z,8.90
2023-02-19T12:24:05.015Z,8.90
2023-02-19T12:26:51.823Z,9.00
2023-02-19T12:29:38.359Z,9.10
2023-02-19T12:32:25.262Z,9.20
2023-02-19T12:35:11.801Z,9.30
2023-02-19T12:37:58.348Z,9.10
2023-02-19T12:40:45.260Z,8.60
2023-02-19T12:43:31.799Z,8.10
2023-02-19T12:46:18.452Z,7.80
2023-02-19T12:49:05.038Z,7.50
2023-02-19T12:51:51.625Z,7.40
2023-02-19T12:54:38.165Z,7.40
2023-02-19T12:57:24.740Z,7.40
2023-02-19T13:00:11.348Z,7.40
2023-02-19T13:02:57.919Z,7.40
2023-02-19T13:05:44.388Z,7.40
2023-02-19T13:08:33.050Z,7.40
2023-02-19T13:11:20.435Z,7.40
2023-02-19T13:14:07.073Z,7.30
2023-02-19T13:16:53.630Z,7.30
2023-02-19T13:19:40.530Z,7.30
2023-02-19T13:22:27.118Z,7.20
2023-02-19T13:25:13.813Z,7.10
2023-02-19T13:28:00.338Z,7.10
2023-02-19T13:30:47.014Z,7.10
2023-02-19T13:33:33.614Z,7.00
2023-02-19T13:36:20.301Z,7.00
2023-02-19T13:39:06.843Z,7.00
2023-02-19T13:41:53.387Z,7.10
2023-02-19T13:44:41.059Z,7.10
2023-02-19T13:47:27.575Z,7.00
2023-02-19T13:50:14.131Z,7.10
2023-02-19T13:53:00.687Z,7.00
2023-02-19T13:55:47.423Z,7.00
2023-02-19T13:58:34.033Z,7.00
2023-02-19T14:01:20.600Z,7.00
2023-02-19T14:04:07.158Z,6.90
2023-02-19T14:06:53.963Z,6.90
2023-02-19T14:09:40.500Z,6.90
2023-02-19T14:12:28.066Z,7.00
2023-02-19T14:15:14.842Z,7.00
2023-02-19T14:18:02.385Z,7.00
2023-02-19T14:20:49.008Z,7.00
2023-02-19T14:23:35.542Z,6.80
2023-02-19T14:26:22.023Z,6.80
2023-02-19T14:29:08.832Z,6.80
2023-02-19T14:31:55.492Z,6.80
2023-02-19T14:34:42.135Z,6.80
2023-02-19T14:37:28.686Z,6.60
2023-02-19T14:40:15.164Z,6.60
2023-02-19T14:43:01.697Z,6.50
2023-02-19T14:45:48.223Z,6.50
2023-02-19T14:48:34.820Z,6.50
2023-02-19T14:51:21.390Z,6.50
2023-02-19T14:54:07.932Z,6.40
2023-02-19T14:56:54.529Z,6.50
2023-02-19T14:59:41.005Z,6.50
2023-02-19T15:02:27.486Z,6.50
2023-02-19T15:05:14.083Z,6.50
2023-02-19T15:08:00.645Z,6.50
2023-02-19T15:10:47.183Z,6.50
2023-02-19T15:13:33.715Z,6.50
2023-02-19T15:16:20.284Z,6.50
2023-02-19T15:19:06.856Z,6.50
2023-02-19T15:21:53.390Z,6.50
2023-02-19T15:24:39.959Z,6.50
2023-02-19T15:27:26.493Z,6.50
2023-02-19T15:30:13.247Z,6.50
2023-02-19T15:32:59.772Z,6.40
2023-02-19T15:35:46.631Z,6.40
2023-02-19T15:38:33.184Z,6.30
2023-02-19T15:41:19.961Z,6.20
2023-02-19T15:44:06.480Z,6.20
2023-02-19T15:46:52.982Z,6.10
2023-02-19T15:49:39.515Z,6.10
2023-02-19T15:52:26.071Z,6.10
2023-02-19T15:55:12.593Z,6.10
2023-02-19T15:57:59.090Z,6.10
2023-02-19T16:00:45.666Z,6.10
2023-02-19T16:03:32.243Z,6.10
2023-02-19T16:06:18.812Z,6.10
2023-02-19T16:09:05.362Z,6.10
2023-02-19T16:11:51.902Z,6.10
2023-02-19T16:14:38.445Z,6.10
2023-02-19T16:17:24.979Z,6.10
2023-02-19T16:20:11.535Z,6.20
2023-02-19T16:22:58.119Z,6.10
2023-02-19T16:25:44.674Z,6.20
2023-02-19T16:28:31.324Z,6.20
2023-02-19T16:31:17.966Z,6.20
2023-02-19T16:34:04.551Z,6.20
2023-02-19T16:36:51.068Z,6.10
2023-02-19T16:39:37.591Z,6.20
2023-02-19T16:42:24.140Z,6.10
2023-02-19T16:45:11.642Z,6.20
2023-02-19T16:47:58.181Z,6.20
2023-02-19T16:50:44.707Z,6.20
2023-02-19T16:53:31.275Z,6.20
2023-02-19T16:56:17.802Z,6.20
2023-02-19T16:59:04.334Z,6.20
2023-02-19T17:01:50.899Z,6.20
2023-02-19T17:04:37.449Z,6.20
2023-02-19T17:07:24.034Z,6.20
2023-02-19T17:10:10.528Z,6.10
2023-02-19T17:12:57.354Z,6.10
2023-02-19T17:15:43.870Z,6.00
2023-02-19T17:18:31.458Z,6.00
2023-02-19T17:21:18.004Z,6.00
2023-02-19T17:24:04.594Z,6.00
2023-02-19T17:26:51.115Z,6.00
2023-02-19T17:29:37.646Z,6.00
2023-02-19T17:32:24.241Z,6.00
2023-02-19T17:35:10.825Z,6.00
2023-02-19T17:37:57.358Z,6.00
2023-02-19T17:40:43.901Z,6.00
2023-02-19T17:43:30.422Z,6.00
2023-02-19T17:46:18.891Z,6.00
2023-02-19T17:49:05.415Z,6.10
2023-02-19T17:51:51.965Z,6.10
2023-02-19T17:54:38.501Z,6.10
2023-02-19T17:57:25.037Z,6.10
2023-02-19T18:00:11.563Z,6.00
2023-02-19T18:02:58.094Z,6.00
2023-02-19T18:05:44.655Z,6.00
2023-02-19T18:08:31.227Z,6.00
2023-02-19T18:11:17.735Z,6.00
2023-02-19T18:14:04.265Z,6.00
2023-02-19T18:16:50.997Z,6.00
2023-02-19T18:19:37.590Z,6.00
2023-02-19T18:22:24.156Z,6.00
2023-02-19T18:25:10.735Z,6.00
2023-02-19T18:27:57.287Z,5.90
2023-02-19T18:30:43.881Z,5.90
2023-02-19T18:33:30.506Z,5.90
2023-02-19T18:36:17.034Z,6.00
2023-02-19T18:39:03.547Z,5.90
2023-02-19T18:41:50.094Z,6.00
2023-02-19T18:44:36.642Z,5.90
2023-02-19T18:47:23.136Z,5.90
2023-02-19T18:50:09.696Z,5.90
2023-02-19T18:52:56.194Z,5.90
2023-02-19T18:55:42.750Z,5.90
2023-02-19T18:58:29.310Z,6.00
2023-02-19T19:01:15.928Z,6.00
2023-02-19T19:04:02.546Z,6.00
2023-02-19T19:06:49.100Z,6.00
2023-02-19T19:09:35.615Z,6.00
2023-02-19T19:12:22.195Z,6.00
2023-02-19T19:15:08.730Z,6.00
2023-02-19T19:17:55.280Z,6.00
2023-02-19T19:20:41.804Z,6.00
2023-02-19T19:23:30.383Z,6.00
2023-02-19T19:26:16.929Z,6.00
2023-02-19T19:29:03.451Z,6.00
2023-02-19T19:31:50.197Z,6.00
2023-02-19T19:34:36.800Z,6.00
2023-02-19T19:37:27.417Z,6.00
2023-02-19T19:40:14.865Z,6.00
2023-02-19T19:43:01.462Z,6.00
2023-02-19T19:45:48.073Z,6.10
2023-02-19T19:48:34.607Z,6.10
2023-02-19T19:51:21.177Z,6.00
2023-02-19T19:54:07.678Z,6.00
2023-02-19T19:56:54.242Z,6.00
2023-02-19T19:59:40.740Z,6.10
2023-02-19T20:02:27.280Z,6.10
2023-02-19T20:05:13.875Z,6.10
2023-02-19T20:08:00.404Z,6.10
2023-02-19T20:10:46.959Z,6.10
2023-02-19T20:13:33.503Z,6.10
2023-02-19T20:16:20.052Z,6.10
2023-02-19T20:19:06.620Z,6.10
2023-02-19T20:21:53.211Z,6.20
2023-02-19T20:24:39.865Z,6.20
2023-02-19T20:27:26.492Z,6.20
2023-02-19T20:30:13.142Z,6.20
2023-02-19T20:32:59.748Z,6.10
2023-02-19T20:35:46.292Z,6.10
2023-02-19T20:38:32.907Z,6.10
2023-02-19T20:41:19.561Z,6.10
2023-02-19T20:44:06.303Z,6.10
2023-02-19T20:46:52.877Z,6.10
2023-02-19T20:49:39.646Z,6.10
2023-02-19T20:52:26.203Z,6.10
2023-02-19T20:55:12.701Z,6.10
2023-02-19T20:57:59.501Z,6.10
2023-02-19T21:00:45.991Z,6.10
2023-02-19T21:03:32.518Z,6.10
2023-02-19T21:06:19.042Z,6.20
2023-02-19T21:09:05.599Z,6.20
2023-02-19T21:11:52.140Z,6.10
2023-02-19T21:14:38.723Z,6.10
2023-02-19T21:17:25.256Z,6.10
2023-02-19T21:20:11.785Z,6.10
2023-02-19T21:22:58.307Z,6.10
2023-02-19T21:25:44.853Z,6.10
2023-02-19T21:28:31.339Z,6.10
2023-02-19T21:31:17.913Z,6.20
2023-02-19T21:34:04.421Z,6.20
2023-02-19T21:36:50.947Z,6.20
2023-02-19T21:39:38.523Z,6.10
2023-02-19T21:42:25.039Z,6.10
2023-02-19T21:45:11.598Z,6.10
2023-02-19T21:47:59.143Z,6.20
2023-02-19T21:50:45.695Z,6.20
2023-02-19T21:53:32.231Z,6.20
2023-02-19T21:56:18.752Z,6.20
2023-02-19T21:59:05.304Z,6.20
2023-02-19T22:01:51.862Z,6.10
2023-02-19T22:04:38.381Z,6.10
2023-02-19T22:07:25.070Z,6.10
2023-02-19T22:10:11.600Z,6.10
2023-02-19T22:12:58.157Z,6.20
2023-02-19T22:15:44.678Z,6.20
2023-02-19T22:18:31.327Z,6.20
2023-02-19T22:21:17.938Z,6.20
2023-02-19T22:24:04.497Z,6.30
2023-02-19T22:26:51.023Z,6.30
2023-02-19T22:29:37.590Z,6.30
2023-02-19T22:32:24.176Z,6.30
2023-02-19T22:35:10.761Z,6.30
2023-02-19T22:37:57.273Z,6.30
2023-02-19T22:40:43.831Z,6.30
2023-02-19T22:43:30.350Z,6.30
2023-02-19T22:46:16.939Z,6.20
2023-02-19T22:49:03.507Z,6.40
2023-02-19T22:51:50.062Z,6.20
2023-02-19T22:54:36.588Z,6.30
2023-02-19T22:57:23.138Z,6.20
2023-02-19T23:00:09.753Z,6.20
2023-02-19T23:02:56.302Z,6.20
2023-02-19T23:05:42.822Z,6.20
2023-02-19T23:08:29.350Z,6.30
2023-02-19T23:11:15.851Z,6.30
2023-02-19T23:14:02.397Z,6.30
2023-02-19T23:16:50.032Z,6.30
2023-02-19T23:19:36.583Z,6.30
2023-02-19T23:22:24.350Z,6.30
2023-02-19T23:25:10.853Z,6.30
2023-02-19T23:27:57.396Z,6.30
2023-02-19T23:30:43.965Z,6.20
2023-02-19T23:33:30.566Z,6.30
2023-02-19T23:36:17.087Z,6.30
2023-02-19T23:39:03.630Z,6.30
2023-02-19T23:41:50.172Z,6.30
2023-02-19T23:44:36.716Z,6.30
2023-02-19T23:47:23.253Z,6.30
2023-02-19T23:50:09.815Z,6.30
2023-02-19T23:52:56.328Z,6.30
2023-02-19T23:55:42.858Z,6.30
2023-02-19T23:58:29.413Z,6.30
